createdAt,value
2019-01-11T00:00:13.475Z,65.20
2019-01-11T00:05:17.365Z,65.40
2019-01-11T00:10:21.999Z,65.00
2019-01-11T00:15:26.331Z,65.30
2019-01-11T00:20:31.491Z,65.20
2019-01-11T00:25:35.724Z,65.40
2019-01-11T00:30:40.155Z,65.10
2019-01-11T00:35:44.147Z,65.20
2019-01-11T00:40:48.101Z,65.20
2019-01-11T00:45:52.166Z,65.70
2019-01-11T00:50:56.414Z,65.00
2019-01-11T00:56:00.919Z,65.20
2019-01-11T01:01:05.455Z,65.00
2019-01-11T01:06:09.507Z,65.10
2019-01-11T01:11:13.541Z,65.00
2019-01-11T01:16:17.859Z,64.90
2019-01-11T01:21:22.490Z,66.10
2019-01-11T01:26:26.513Z,64.80
2019-01-11T01:31:30.798Z,65.00
2019-01-11T01:36:34.822Z,65.20
2019-01-11T01:41:38.850Z,65.20
2019-01-11T01:46:43.059Z,65.20
2019-01-11T01:51:47.283Z,65.20
2019-01-11T01:56:51.823Z,65.00
2019-01-11T02:01:56.051Z,65.00
2019-01-11T02:07:00.018Z,65.10
2019-01-11T02:12:04.442Z,65.00
2019-01-11T02:17:08.760Z,65.00
2019-01-11T02:22:12.811Z,65.30
2019-01-11T02:27:17.142Z,65.50
2019-01-11T02:32:21.135Z,65.20
2019-01-11T02:37:25.159Z,65.10
2019-01-11T02:42:29.510Z,65.20
2019-01-11T02:47:33.706Z,65.00
2019-01-11T02:52:38.426Z,65.10
2019-01-11T02:57:42.384Z,65.20
2019-01-11T03:02:47.384Z,65.00
2019-01-11T03:07:52.028Z,65.00
2019-01-11T03:12:56.790Z,65.30
2019-01-11T03:18:00.954Z,65.20
2019-01-11T03:23:05.630Z,65.60
2019-01-11T03:28:10.482Z,64.90
2019-01-11T03:33:14.475Z,64.90
2019-01-11T03:38:18.430Z,65.30
2019-01-11T03:43:22.390Z,65.30
2019-01-11T03:48:26.370Z,65.20
2019-01-11T03:53:30.507Z,65.60
2019-01-11T03:58:34.482Z,65.10
2019-01-11T04:03:38.734Z,65.40
2019-01-11T04:08:42.912Z,65.50
2019-01-11T04:13:47.110Z,65.30
2019-01-11T04:19:03.882Z,65.50
2019-01-11T04:24:08.211Z,65.40
2019-01-11T04:29:12.215Z,65.30
2019-01-11T04:34:16.432Z,65.40
2019-01-11T04:39:20.927Z,65.60
2019-01-11T04:44:25.132Z,65.60
2019-01-11T04:49:29.339Z,65.40
2019-01-11T04:54:33.454Z,65.70
2019-01-11T04:59:37.595Z,65.70
2019-01-11T05:04:42.035Z,65.30
2019-01-11T05:09:46.308Z,65.40
2019-01-11T05:14:50.751Z,65.60
2019-01-11T05:19:55.394Z,66.20
2019-01-11T05:24:59.269Z,66.00
2019-01-11T05:30:03.415Z,65.90
2019-01-11T05:35:07.986Z,65.60
2019-01-11T05:40:14.975Z,66.60
2019-01-11T05:45:18.978Z,66.20
2019-01-11T05:50:24.254Z,66.10
2019-01-11T05:55:47.758Z,66.20
2019-01-11T06:00:51.800Z,66.00
2019-01-11T06:05:56.047Z,66.00
2019-01-11T06:11:00.335Z,66.00
2019-01-11T06:16:05.014Z,68.50
2019-01-11T06:21:09.172Z,64.80
2019-01-11T06:26:13.879Z,66.10
2019-01-11T06:31:18.603Z,66.10
2019-01-11T06:36:22.522Z,66.70
2019-01-11T06:41:31.220Z,66.30
2019-01-11T06:46:36.283Z,66.70
2019-01-11T06:51:40.447Z,66.60
2019-01-11T06:56:44.703Z,66.50
2019-01-11T07:01:48.659Z,66.50
2019-01-11T07:06:52.518Z,66.60
2019-01-11T07:11:56.400Z,66.70
2019-01-11T07:17:01.018Z,66.30
2019-01-11T07:22:05.225Z,66.90
2019-01-11T07:27:09.458Z,66.70
2019-01-11T07:32:13.686Z,66.90
2019-01-11T07:37:17.638Z,66.90
2019-01-11T07:42:21.847Z,66.80
2019-01-11T07:47:25.975Z,67.00
2019-01-11T07:52:30.299Z,66.80
2019-01-11T07:57:34.506Z,67.00
2019-01-11T08:02:38.814Z,67.20
2019-01-11T08:07:42.990Z,67.20
2019-01-11T08:12:46.911Z,67.00
2019-01-11T08:17:50.930Z,67.20
2019-01-11T08:22:54.791Z,67.20
2019-01-11T08:27:58.695Z,67.10
2019-01-11T08:33:02.849Z,67.00
2019-01-11T08:38:07.039Z,67.00
2019-01-11T08:43:11.222Z,66.80
2019-01-11T08:48:15.174Z,67.10
2019-01-11T08:53:19.138Z,67.20
2019-01-11T08:58:23.362Z,67.70
2019-01-11T09:03:27.303Z,67.40
2019-01-11T09:08:31.225Z,67.90
2019-01-11T09:13:35.198Z,67.20
2019-01-11T09:18:43.348Z,68.30
2019-01-11T09:23:47.479Z,67.60
2019-01-11T09:28:51.669Z,67.70
2019-01-11T09:33:55.547Z,67.40
2019-01-11T09:39:00.547Z,67.70
2019-01-11T09:44:04.651Z,68.80
2019-01-11T09:49:08.835Z,67.60
2019-01-11T09:54:12.820Z,67.50
2019-01-11T09:59:17.435Z,67.40
2019-01-11T10:04:25.363Z,68.30
2019-01-11T10:09:29.482Z,68.00
2019-01-11T10:14:33.611Z,68.20
2019-01-11T10:19:37.947Z,69.00
2019-01-11T10:24:41.802Z,67.80
2019-01-11T10:29:45.803Z,69.00
2019-01-11T10:34:49.654Z,69.10
2019-01-11T10:39:53.867Z,68.40
2019-01-11T10:44:57.968Z,68.30
2019-01-11T10:50:02.470Z,68.30
2019-01-11T10:55:08.063Z,68.60
2019-01-11T11:00:15.284Z,68.60
2019-01-11T11:05:20.068Z,68.60
2019-01-11T11:10:25.603Z,68.70
2019-01-11T11:15:29.799Z,69.00
2019-01-11T11:20:33.730Z,69.20
2019-01-11T11:25:37.657Z,69.00
2019-01-11T11:30:41.831Z,69.00
2019-01-11T11:35:45.875Z,68.90
2019-01-11T11:40:50.448Z,69.80
2019-01-11T11:45:54.542Z,69.40
2019-01-11T11:50:58.747Z,69.40
2019-01-11T11:56:03.105Z,69.70
2019-01-11T12:01:08.527Z,70.30
2019-01-11T12:06:12.402Z,69.70
2019-01-11T12:11:16.589Z,70.00
2019-01-11T12:16:21.010Z,70.30
2019-01-11T12:21:25.290Z,70.00
2019-01-11T12:26:29.542Z,70.00
2019-01-11T12:31:33.743Z,70.20
2019-01-11T12:36:37.766Z,70.10
2019-01-11T12:41:42.366Z,70.50
2019-01-11T12:46:47.029Z,70.40
2019-01-11T12:51:54.028Z,70.20
2019-01-11T12:56:56.999Z,70.50
2019-01-11T13:02:00.934Z,70.70
2019-01-11T13:07:04.950Z,70.70
2019-01-11T13:12:09.207Z,70.50
2019-01-11T13:17:13.659Z,70.90
2019-01-11T13:22:17.602Z,70.80
2019-01-11T13:27:21.810Z,70.60
2019-01-11T13:32:25.947Z,71.00
2019-01-11T13:37:30.472Z,71.10
2019-01-11T13:42:35.014Z,71.20
2019-01-11T13:47:39.550Z,71.40
2019-01-11T13:52:43.518Z,71.10
2019-01-11T13:57:47.526Z,71.10
2019-01-11T14:02:52.040Z,71.30
2019-01-11T14:07:56.050Z,71.20
2019-01-11T14:13:00.023Z,71.00
2019-01-11T14:18:04.611Z,71.10
2019-01-11T14:23:08.894Z,71.20
2019-01-11T14:28:13.322Z,71.10
2019-01-11T14:33:17.335Z,71.20
2019-01-11T14:38:21.915Z,71.40
2019-01-11T14:43:25.898Z,71.20
2019-01-11T14:48:30.020Z,71.10
2019-01-11T14:53:34.480Z,71.00
2019-01-11T14:58:38.423Z,71.00
2019-01-11T15:03:42.302Z,71.30
2019-01-11T15:08:46.683Z,70.80
2019-01-11T15:13:51.159Z,70.80
2019-01-11T15:18:55.387Z,70.70
2019-01-11T15:24:04.199Z,71.40
2019-01-11T15:29:08.423Z,71.10
2019-01-11T15:34:12.315Z,70.90
2019-01-11T15:39:16.202Z,76.70
2019-01-11T15:44:20.660Z,72.40
2019-01-11T15:49:24.868Z,71.40
2019-01-11T15:54:28.811Z,71.50
2019-01-11T15:59:38.231Z,71.90
2019-01-11T16:04:42.350Z,74.90
2019-01-11T16:10:00.722Z,71.80
2019-01-11T16:15:20.000Z,71.80
2019-01-11T16:20:24.226Z,72.80
2019-01-11T16:25:28.266Z,72.20
2019-01-11T16:30:32.128Z,72.10
2019-01-11T16:35:36.653Z,71.70
2019-01-11T16:40:40.646Z,71.70
2019-01-11T16:45:45.067Z,71.60
2019-01-11T16:50:49.381Z,71.50
2019-01-11T16:55:53.302Z,71.60
2019-01-11T17:00:57.786Z,71.50
2019-01-11T17:06:02.008Z,71.60
2019-01-11T17:11:06.265Z,71.50
2019-01-11T17:16:10.297Z,71.90
2019-01-11T17:21:14.233Z,72.00
2019-01-11T17:26:18.099Z,72.40
2019-01-11T17:31:22.018Z,72.00
2019-01-11T17:36:25.950Z,73.00
2019-01-11T17:41:30.100Z,72.50
2019-01-11T17:46:34.603Z,73.00
2019-01-11T17:51:38.563Z,72.30
2019-01-11T17:56:43.075Z,72.50
2019-01-11T18:01:47.117Z,72.80
2019-01-11T18:06:51.439Z,72.60
2019-01-11T18:11:55.704Z,72.80
2019-01-11T18:16:59.971Z,72.20
2019-01-11T18:22:04.753Z,71.60
2019-01-11T18:27:08.624Z,71.70
2019-01-11T18:32:12.827Z,72.10
2019-01-11T18:37:17.846Z,71.80
2019-01-11T18:42:21.775Z,72.10
2019-01-11T18:47:25.694Z,72.60
2019-01-11T18:52:30.560Z,72.70
2019-01-11T18:57:35.087Z,72.60
2019-01-11T19:02:39.328Z,73.30
2019-01-11T19:07:46.159Z,74.00
2019-01-11T19:12:49.471Z,73.60
2019-01-11T19:17:53.534Z,73.70
2019-01-11T19:22:58.070Z,73.90
2019-01-11T19:28:02.767Z,73.40
2019-01-11T19:33:07.411Z,73.80
2019-01-11T19:38:11.359Z,74.50
2019-01-11T19:43:15.475Z,74.80
2019-01-11T19:48:19.415Z,74.10
2019-01-11T19:53:27.572Z,73.70
2019-01-11T19:58:29.726Z,73.70
2019-01-11T20:03:33.782Z,73.00
2019-01-11T20:08:38.463Z,72.70
2019-01-11T20:13:43.431Z,73.00
2019-01-11T20:18:47.647Z,72.80
2019-01-11T20:23:51.792Z,72.50
2019-01-11T20:28:55.644Z,72.80
2019-01-11T20:34:00.294Z,71.60
2019-01-11T20:39:08.079Z,72.40
2019-01-11T20:44:11.931Z,72.30
2019-01-11T20:49:15.855Z,71.80
2019-01-11T20:54:19.999Z,72.70
2019-01-11T20:59:24.243Z,72.00
2019-01-11T21:04:28.427Z,72.00
2019-01-11T21:09:32.711Z,72.00
2019-01-11T21:14:36.631Z,72.60
2019-01-11T21:19:40.795Z,72.10
2019-01-11T21:24:45.331Z,71.80
2019-01-11T21:29:49.415Z,71.90
2019-01-11T21:34:53.974Z,72.20
2019-01-11T21:39:58.326Z,71.50
2019-01-11T21:45:02.541Z,72.10
2019-01-11T21:50:09.467Z,71.70
2019-01-11T21:55:14.207Z,72.50
2019-01-11T22:00:21.671Z,72.10
2019-01-11T22:05:25.712Z,72.70
2019-01-11T22:10:29.958Z,72.20
2019-01-11T22:15:34.043Z,72.60
2019-01-11T22:20:38.242Z,71.80
2019-01-11T22:25:42.498Z,72.30
2019-01-11T22:30:46.447Z,71.70
2019-01-11T22:35:50.860Z,71.90
2019-01-11T22:40:55.210Z,72.10
2019-01-11T22:45:59.291Z,72.20
2019-01-11T22:51:03.181Z,72.20
2019-01-11T22:56:07.599Z,72.10
2019-01-11T23:01:47.442Z,72.10
2019-01-11T23:07:08.171Z,73.50
2019-01-11T23:12:31.459Z,72.50
2019-01-11T23:17:44.486Z,72.50
2019-01-11T23:22:49.055Z,72.50
2019-01-11T23:27:52.939Z,72.20
2019-01-11T23:32:57.562Z,72.00
2019-01-11T23:38:01.838Z,72.30
2019-01-11T23:43:05.786Z,72.40
2019-01-11T23:48:10.166Z,72.50
2019-01-11T23:53:14.643Z,72.80
2019-01-11T23:58:18.502Z,72.60
